createdAt,value
2024-04-09T00:01:44.627Z,8.87
2024-04-09T00:04:12.152Z,5.60
2024-04-09T00:06:39.589Z,5.67
2024-04-09T00:09:07.559Z,4.23
2024-04-09T00:11:37.137Z,4.00
2024-04-09T00:14:05.827Z,4.33
2024-04-09T00:16:34.939Z,4.57
2024-04-09T00:19:02.703Z,3.97
2024-04-09T00:21:31.134Z,5.57
2024-04-09T00:23:59.884Z,3.17
2024-04-09T00:26:30.616Z,4.03
2024-04-09T00:28:57.922Z,4.30
2024-04-09T00:31:28.378Z,4.13
2024-04-09T00:33:56.835Z,8.57
2024-04-09T00:36:24.437Z,8.77
2024-04-09T00:38:55.813Z,6.27
2024-04-09T00:41:23.155Z,9.03
2024-04-09T00:43:50.442Z,4.40
2024-04-09T00:46:18.103Z,3.63
2024-04-09T00:48:45.767Z,4.87
2024-04-09T00:51:15.635Z,5.17
2024-04-09T00:53:44.455Z,6.40
2024-04-09T00:56:12.752Z,5.87
2024-04-09T00:58:40.302Z,6.00
2024-04-09T01:01:07.719Z,8.60
2024-04-09T01:03:35.273Z,5.20
2024-04-09T01:06:03.833Z,7.20
2024-04-09T01:08:31.242Z,4.40
2024-04-09T01:10:58.601Z,4.17
2024-04-09T01:13:25.939Z,4.30
2024-04-09T01:15:53.218Z,3.40
2024-04-09T01:18:20.587Z,5.20
2024-04-09T01:20:48.126Z,5.00
2024-04-09T01:23:15.481Z,11.87
2024-04-09T01:25:44.104Z,5.87
2024-04-09T01:28:11.452Z,4.27
2024-04-09T01:30:39.387Z,7.10
2024-04-09T01:33:07.117Z,8.57
2024-04-09T01:35:34.518Z,13.37
2024-04-09T01:38:02.091Z,6.90
2024-04-09T01:40:29.437Z,4.33
2024-04-09T01:42:56.728Z,5.73
2024-04-09T01:45:24.127Z,4.20
2024-04-09T01:47:51.964Z,3.30
2024-04-09T01:50:19.642Z,7.23
2024-04-09T01:52:49.612Z,8.33
2024-04-09T01:55:18.711Z,7.60
2024-04-09T01:57:46.050Z,8.23
2024-04-09T02:00:14.331Z,5.20
2024-04-09T02:02:44.964Z,3.87
2024-04-09T02:05:14.163Z,4.73
2024-04-09T02:07:42.337Z,6.67
2024-04-09T02:10:10.762Z,13.10
2024-04-09T02:12:39.868Z,5.03
2024-04-09T02:15:08.174Z,8.97
2024-04-09T02:17:36.850Z,8.90
2024-04-09T02:20:05.442Z,9.40
2024-04-09T02:22:33.272Z,8.57
2024-04-09T02:25:00.616Z,11.60
2024-04-09T02:27:28.423Z,5.57
2024-04-09T02:29:58.258Z,6.60
2024-04-09T02:32:25.650Z,7.23
2024-04-09T02:34:52.963Z,5.40
2024-04-09T02:37:20.289Z,9.07
2024-04-09T02:39:47.643Z,6.10
2024-04-09T02:42:15.345Z,6.10
2024-04-09T02:44:42.849Z,7.43
2024-04-09T02:47:10.241Z,7.77
2024-04-09T02:49:37.523Z,10.57
2024-04-09T02:52:05.428Z,5.57
2024-04-09T02:54:32.954Z,5.37
2024-04-09T02:57:00.422Z,7.50
2024-04-09T02:59:27.732Z,6.80
2024-04-09T03:01:55.211Z,6.33
2024-04-09T03:04:22.851Z,7.30
2024-04-09T03:06:50.387Z,6.07
2024-04-09T03:09:17.824Z,5.27
2024-04-09T03:11:45.213Z,5.17
2024-04-09T03:14:13.422Z,11.17
2024-04-09T03:16:41.156Z,5.33
2024-04-09T03:19:08.642Z,7.50
2024-04-09T03:21:36.513Z,5.07
2024-04-09T03:24:04.413Z,8.57
2024-04-09T03:26:31.825Z,5.67
2024-04-09T03:28:59.122Z,4.70
2024-04-09T03:31:29.990Z,6.77
2024-04-09T03:33:57.937Z,6.90
2024-04-09T03:36:25.333Z,9.40
2024-04-09T03:38:53.842Z,6.87
2024-04-09T03:41:21.175Z,7.47
2024-04-09T03:43:48.531Z,8.30
2024-04-09T03:46:17.554Z,7.93
2024-04-09T03:48:46.984Z,8.07
2024-04-09T03:51:16.129Z,8.40
2024-04-09T03:53:44.132Z,7.63
2024-04-09T03:56:11.592Z,5.93
2024-04-09T03:58:41.607Z,6.90
2024-04-09T04:01:10.427Z,7.13
2024-04-09T04:03:42.475Z,5.47
2024-04-09T04:06:10.183Z,12.07
2024-04-09T04:08:39.875Z,6.10
2024-04-09T04:11:08.933Z,8.37
2024-04-09T04:13:37.394Z,6.57
2024-04-09T04:16:15.005Z,7.33
2024-04-09T04:18:45.810Z,10.77
2024-04-09T04:21:14.886Z,10.67
2024-04-09T04:23:42.798Z,7.13
2024-04-09T04:26:14.604Z,8.00
2024-04-09T04:28:43.798Z,5.80
2024-04-09T04:31:13.010Z,5.07
2024-04-09T04:33:41.343Z,6.70
2024-04-09T04:36:12.508Z,7.73
2024-04-09T04:38:41.997Z,5.50
2024-04-09T04:41:09.295Z,5.20
2024-04-09T04:43:42.725Z,5.50
2024-04-09T04:46:10.228Z,6.67
2024-04-09T04:48:41.675Z,5.67
2024-04-09T04:51:10.275Z,6.77
2024-04-09T04:53:37.768Z,8.13
2024-04-09T04:56:05.381Z,9.27
2024-04-09T04:58:32.704Z,6.47
2024-04-09T05:01:00.216Z,11.53
2024-04-09T05:03:27.779Z,5.63
2024-04-09T05:05:55.122Z,9.80
2024-04-09T05:08:23.486Z,11.20
2024-04-09T05:10:51.256Z,8.47
2024-04-09T05:13:18.561Z,7.83
2024-04-09T05:15:45.950Z,14.17
2024-04-09T05:18:16.040Z,6.40
2024-04-09T05:20:43.619Z,8.77
2024-04-09T05:23:11.230Z,8.30
2024-04-09T05:25:38.581Z,8.07
2024-04-09T05:28:05.969Z,8.30
2024-04-09T05:30:33.349Z,9.90
2024-04-09T05:33:00.903Z,6.97
2024-04-09T05:35:28.426Z,8.10
2024-04-09T05:37:55.847Z,5.87
2024-04-09T05:40:23.278Z,7.77
2024-04-09T05:42:50.995Z,9.27
2024-04-09T05:45:21.259Z,7.77
2024-04-09T05:47:49.170Z,5.57
2024-04-09T05:50:16.772Z,4.13
2024-04-09T05:52:44.110Z,5.43
2024-04-09T05:55:13.322Z,8.07
2024-04-09T05:57:41.903Z,6.67
2024-04-09T06:00:23.412Z,3.70
2024-04-09T06:02:51.102Z,5.43
2024-04-09T06:05:18.883Z,7.67
2024-04-09T06:07:47.382Z,7.83
2024-04-09T06:10:17.188Z,6.60
2024-04-09T06:12:45.011Z,7.00
2024-04-09T06:15:12.860Z,5.67
2024-04-09T06:17:40.416Z,7.73
2024-04-09T06:20:08.413Z,6.73
2024-04-09T06:22:35.742Z,8.57
2024-04-09T06:25:03.040Z,10.83
2024-04-09T06:27:30.405Z,6.43
2024-04-09T06:29:57.931Z,7.23
2024-04-09T06:32:25.450Z,6.23
2024-04-09T06:34:52.900Z,6.93
2024-04-09T06:37:20.556Z,7.57
2024-04-09T06:39:48.366Z,3.97
2024-04-09T06:42:15.967Z,14.47
2024-04-09T06:44:43.401Z,12.27
2024-04-09T06:47:10.746Z,9.83
2024-04-09T06:49:38.211Z,8.23
2024-04-09T06:52:05.834Z,8.63
2024-04-09T06:54:33.205Z,5.97
2024-04-09T06:57:00.703Z,9.23
2024-04-09T06:59:28.191Z,8.53
2024-04-09T07:01:55.592Z,8.43
2024-04-09T07:04:23.330Z,6.63
2024-04-09T07:06:51.439Z,8.70
2024-04-09T07:09:22.063Z,6.47
2024-04-09T07:11:49.484Z,5.87
2024-04-09T07:14:16.953Z,4.57
2024-04-09T07:16:45.148Z,10.37
2024-04-09T07:19:12.822Z,9.77
2024-04-09T07:21:40.484Z,7.07
2024-04-09T07:24:08.668Z,14.67
2024-04-09T07:26:36.210Z,8.73
2024-04-09T07:29:03.808Z,7.77
2024-04-09T07:31:31.229Z,11.57
2024-04-09T07:33:58.795Z,7.47
2024-04-09T07:36:26.313Z,9.80
2024-04-09T07:38:56.625Z,8.07
2024-04-09T07:41:27.434Z,9.73
2024-04-09T07:43:56.901Z,9.10
2024-04-09T07:46:25.663Z,8.63
2024-04-09T07:48:53.508Z,5.23
2024-04-09T07:51:21.111Z,9.50
2024-04-09T07:53:48.597Z,7.23
2024-04-09T07:56:16.083Z,10.63
2024-04-09T07:58:44.111Z,7.23
2024-04-09T08:01:11.616Z,7.30
2024-04-09T08:03:39.424Z,8.17
2024-04-09T08:06:08.205Z,6.73
2024-04-09T08:08:39.347Z,6.33
2024-04-09T08:11:12.281Z,5.13
2024-04-09T08:13:39.830Z,9.63
2024-04-09T08:16:08.083Z,5.67
2024-04-09T08:18:36.056Z,6.27
2024-04-09T08:21:04.455Z,6.83
2024-04-09T08:23:32.010Z,6.13
2024-04-09T08:26:02.573Z,9.83
2024-04-09T08:28:29.859Z,10.83
2024-04-09T08:30:57.398Z,8.37
2024-04-09T08:33:24.769Z,8.13
2024-04-09T08:35:52.315Z,7.60
2024-04-09T08:38:21.922Z,7.63
2024-04-09T08:40:49.979Z,6.03
2024-04-09T08:43:20.698Z,11.57
2024-04-09T08:45:48.319Z,7.27
2024-04-09T08:48:18.510Z,5.03
2024-04-09T08:50:51.941Z,3.70
2024-04-09T08:53:20.968Z,4.60
2024-04-09T08:55:49.179Z,6.67
2024-04-09T08:58:16.529Z,6.73
2024-04-09T09:00:43.949Z,5.03
2024-04-09T09:03:11.433Z,10.23
2024-04-09T09:05:38.831Z,5.43
2024-04-09T09:08:08.215Z,7.70
2024-04-09T09:10:36.285Z,3.60
2024-04-09T09:13:05.849Z,8.17
2024-04-09T09:15:33.771Z,4.80
2024-04-09T09:18:01.756Z,4.83
2024-04-09T09:20:29.923Z,4.67
2024-04-09T09:22:57.648Z,6.37
2024-04-09T09:25:27.132Z,7.83
2024-04-09T09:28:10.967Z,5.77
2024-04-09T09:30:45.596Z,6.17
2024-04-09T09:33:25.525Z,4.93
2024-04-09T09:35:52.977Z,4.07
2024-04-09T09:38:24.600Z,5.87
2024-04-09T09:40:53.339Z,5.43
2024-04-09T09:43:22.353Z,3.83
2024-04-09T09:45:49.927Z,3.03
2024-04-09T09:48:27.403Z,6.97
2024-04-09T09:50:55.141Z,4.87
2024-04-09T09:53:23.667Z,5.63
2024-04-09T09:55:55.226Z,5.20
2024-04-09T09:58:25.230Z,5.93
2024-04-09T10:00:56.429Z,6.30
2024-04-09T10:03:24.920Z,2.73
2024-04-09T10:05:53.397Z,5.37
2024-04-09T10:08:24.203Z,5.80
2024-04-09T10:10:52.025Z,6.20
2024-04-09T10:13:29.274Z,4.20
2024-04-09T10:16:02.129Z,3.50
2024-04-09T10:18:39.664Z,6.83
2024-04-09T10:21:08.177Z,5.97
2024-04-09T10:23:37.748Z,4.83
2024-04-09T10:26:09.447Z,4.67
2024-04-09T10:28:37.687Z,8.80
2024-04-09T10:31:16.292Z,4.77
2024-04-09T10:33:43.861Z,3.03
2024-04-09T10:36:13.889Z,4.67
2024-04-09T10:38:43.955Z,5.27
2024-04-09T10:41:13.496Z,3.80
2024-04-09T10:43:41.423Z,7.40
2024-04-09T10:46:14.297Z,3.43
2024-04-09T10:48:44.265Z,5.70
2024-04-09T10:51:12.645Z,5.77
2024-04-09T10:53:40.334Z,4.90
2024-04-09T10:56:09.064Z,3.97
2024-04-09T10:58:40.109Z,3.03
2024-04-09T11:01:14.395Z,6.20
2024-04-09T11:03:42.427Z,4.17
2024-04-09T11:06:09.993Z,4.23
2024-04-09T11:08:37.731Z,5.83
2024-04-09T11:11:05.442Z,4.40
2024-04-09T11:13:33.512Z,4.43
2024-04-09T11:16:03.986Z,6.60
2024-04-09T11:18:32.458Z,3.37
2024-04-09T11:21:05.118Z,3.43
2024-04-09T11:23:33.496Z,5.37
2024-04-09T11:26:03.381Z,5.60
2024-04-09T11:28:32.529Z,5.27
2024-04-09T11:31:01.813Z,4.83
2024-04-09T11:33:29.887Z,4.43
2024-04-09T11:36:05.468Z,5.37
2024-04-09T11:38:38.044Z,4.47
2024-04-09T11:41:05.476Z,6.00
2024-04-09T11:43:33.050Z,4.30
2024-04-09T11:46:03.886Z,6.47
2024-04-09T11:48:31.382Z,6.20
2024-04-09T11:50:59.009Z,6.63
2024-04-09T11:53:26.342Z,5.53
2024-04-09T11:55:55.115Z,3.83
2024-04-09T11:58:22.634Z,4.23
2024-04-09T12:00:50.146Z,4.93
2024-04-09T12:03:17.889Z,4.73
2024-04-09T12:05:45.711Z,5.57
2024-04-09T12:08:13.077Z,4.47
2024-04-09T12:10:40.408Z,3.63
2024-04-09T12:13:07.758Z,3.43
2024-04-09T12:15:35.161Z,4.00
2024-04-09T12:18:02.689Z,3.17
2024-04-09T12:20:30.200Z,3.67
2024-04-09T12:22:57.639Z,3.63
2024-04-09T12:25:25.009Z,4.03
2024-04-09T12:27:53.443Z,3.57
2024-04-09T12:30:20.892Z,4.13
2024-04-09T12:32:48.362Z,4.77
2024-04-09T12:35:21.645Z,4.90
2024-04-09T12:37:51.337Z,4.77
2024-04-09T12:40:18.866Z,4.47
2024-04-09T12:42:47.321Z,4.93
2024-04-09T12:45:14.920Z,5.37
2024-04-09T12:47:42.704Z,4.47
2024-04-09T12:50:14.808Z,3.10
2024-04-09T12:52:42.818Z,2.07
2024-04-09T12:55:11.494Z,3.50
2024-04-09T12:57:39.006Z,6.17
2024-04-09T13:00:22.923Z,3.13
2024-04-09T13:02:57.188Z,3.10
2024-04-09T13:05:25.044Z,1.40
2024-04-09T13:07:52.693Z,1.20
2024-04-09T13:10:21.497Z,1.70
2024-04-09T13:12:49.275Z,1.80
2024-04-09T13:16:44.587Z,3.33
2024-04-09T13:18:04.562Z,1.00
2024-04-09T13:20:32.153Z,1.73
2024-04-09T13:22:59.588Z,2.37
2024-04-09T13:25:26.914Z,1.30
2024-04-09T13:27:54.251Z,1.43
2024-04-09T13:30:22.447Z,0.97
2024-04-09T13:32:50.399Z,0.70
2024-04-09T13:35:17.922Z,1.00
2024-04-09T13:37:46.002Z,1.60
2024-04-09T13:40:14.194Z,2.33
2024-04-09T13:42:45.446Z,1.47
2024-04-09T13:45:14.070Z,2.77
2024-04-09T13:47:42.319Z,2.03
2024-04-09T13:50:11.372Z,5.03
2024-04-09T13:52:38.789Z,2.87
2024-04-09T13:55:09.988Z,1.47
2024-04-09T13:57:37.611Z,0.60
2024-04-09T14:00:09.819Z,2.17
2024-04-09T14:02:37.794Z,2.73
2024-04-09T14:05:06.373Z,0.60
2024-04-09T14:07:33.874Z,1.20
2024-04-09T14:10:01.213Z,1.37
2024-04-09T14:12:28.739Z,1.20
2024-04-09T14:14:56.340Z,1.87
2024-04-09T14:17:24.642Z,1.97
2024-04-09T14:19:53.900Z,3.70
2024-04-09T14:22:21.299Z,0.97
2024-04-09T14:24:48.596Z,3.87
2024-04-09T14:27:15.926Z,0.97
2024-04-09T14:29:44.249Z,1.10
2024-04-09T14:32:11.790Z,1.20
2024-04-09T14:34:39.177Z,2.60
2024-04-09T14:37:06.919Z,2.00
2024-04-09T14:39:34.228Z,1.13
2024-04-09T14:42:01.499Z,1.97
2024-04-09T14:44:29.046Z,1.63
2024-04-09T14:46:56.474Z,1.60
2024-04-09T14:49:23.950Z,3.13
2024-04-09T14:51:51.278Z,2.03
2024-04-09T14:54:18.550Z,2.30
2024-04-09T14:56:45.876Z,1.40
2024-04-09T14:59:14.297Z,2.40
2024-04-09T15:01:42.359Z,1.97
2024-04-09T15:04:09.745Z,1.20
2024-04-09T15:06:37.091Z,1.23
2024-04-09T15:09:08.292Z,2.60
2024-04-09T15:11:35.853Z,1.67
2024-04-09T15:14:05.327Z,1.93
2024-04-09T15:16:33.305Z,1.83
2024-04-09T15:19:00.657Z,3.33
2024-04-09T15:21:27.961Z,2.97
2024-04-09T15:23:55.878Z,1.33
2024-04-09T15:26:23.268Z,2.10
2024-04-09T15:28:50.699Z,3.93
2024-04-09T15:31:18.035Z,4.83
2024-04-09T15:33:45.536Z,4.10
2024-04-09T15:36:13.183Z,3.00
2024-04-09T15:38:40.572Z,2.87
2024-04-09T15:41:08.116Z,2.33
2024-04-09T15:43:35.520Z,4.73
2024-04-09T15:46:02.846Z,2.43
2024-04-09T15:48:30.649Z,4.60
2024-04-09T15:50:58.062Z,2.20
2024-04-09T15:53:26.003Z,3.60
2024-04-09T15:55:54.195Z,3.37
2024-04-09T15:58:21.560Z,2.57
2024-04-09T16:00:49.147Z,4.20
2024-04-09T16:03:17.237Z,2.90
2024-04-09T16:05:46.429Z,4.10
2024-04-09T16:08:14.753Z,4.10
2024-04-09T16:10:42.205Z,4.07
2024-04-09T16:13:09.539Z,3.23
2024-04-09T16:15:36.810Z,7.27
2024-04-09T16:18:04.390Z,4.50
2024-04-09T16:20:31.930Z,3.13
2024-04-09T16:22:59.347Z,3.23
2024-04-09T16:25:26.718Z,4.50
2024-04-09T16:27:55.165Z,3.73
2024-04-09T16:30:26.412Z,3.40
2024-04-09T16:32:56.645Z,3.20
2024-04-09T16:35:25.978Z,3.30
2024-04-09T16:37:53.489Z,3.50
2024-04-09T16:40:20.811Z,3.40
2024-04-09T16:42:48.118Z,2.90
2024-04-09T16:45:15.477Z,3.93
2024-04-09T16:47:44.187Z,7.93
2024-04-09T16:50:13.382Z,3.93
2024-04-09T16:52:40.819Z,2.53
2024-04-09T16:55:08.239Z,2.30
2024-04-09T16:57:42.150Z,2.73
2024-04-09T17:00:13.218Z,2.60
2024-04-09T17:02:40.609Z,8.33
2024-04-09T17:05:09.791Z,3.03
2024-04-09T17:07:37.197Z,2.80
2024-04-09T17:10:11.303Z,1.87
2024-04-09T17:12:39.417Z,2.13
2024-04-09T17:15:07.260Z,3.63
2024-04-09T17:17:35.171Z,3.17
2024-04-09T17:20:03.138Z,2.20
2024-04-09T17:22:30.660Z,2.93
2024-04-09T17:24:58.324Z,3.70
2024-04-09T17:27:26.268Z,2.53
2024-04-09T17:29:53.627Z,1.93
2024-04-09T17:32:21.055Z,3.30
2024-04-09T17:34:48.426Z,2.60
2024-04-09T17:37:15.827Z,2.47
2024-04-09T17:39:43.274Z,5.03
2024-04-09T17:42:10.607Z,2.40
2024-04-09T17:44:38.875Z,4.27
2024-04-09T17:47:06.483Z,2.13
2024-04-09T17:49:33.831Z,2.97
2024-04-09T17:52:01.183Z,3.73
2024-04-09T17:54:28.537Z,4.10
2024-04-09T17:56:55.822Z,10.00
2024-04-09T17:59:23.265Z,2.37
2024-04-09T18:01:50.714Z,2.17
2024-04-09T18:04:18.268Z,2.63
2024-04-09T18:06:46.620Z,1.90
2024-04-09T18:09:16.074Z,3.43
2024-04-09T18:11:43.506Z,2.17
2024-04-09T18:14:11.352Z,4.80
2024-04-09T18:16:38.907Z,4.80
2024-04-09T18:19:07.089Z,3.27
2024-04-09T18:21:34.640Z,3.70
2024-04-09T18:24:01.974Z,4.07
2024-04-09T18:26:29.320Z,3.63
2024-04-09T18:28:56.878Z,2.77
2024-04-09T18:31:24.226Z,2.23
2024-04-09T18:33:52.020Z,4.60
2024-04-09T18:36:19.490Z,2.57
2024-04-09T18:38:49.524Z,3.93
2024-04-09T18:41:17.363Z,2.20
2024-04-09T18:43:45.479Z,3.37
2024-04-09T18:46:13.180Z,3.83
2024-04-09T18:48:40.619Z,2.33
2024-04-09T18:51:11.969Z,5.20
2024-04-09T18:53:39.457Z,3.77
2024-04-09T18:56:06.989Z,2.33
2024-04-09T18:58:35.408Z,2.33
2024-04-09T19:01:03.484Z,2.73
2024-04-09T19:03:30.881Z,4.40
2024-04-09T19:05:58.558Z,2.87
2024-04-09T19:08:26.035Z,3.40
2024-04-09T19:10:53.477Z,2.47
2024-04-09T19:13:20.938Z,3.50
2024-04-09T19:15:49.132Z,3.40
2024-04-09T19:18:16.551Z,2.07
2024-04-09T19:20:44.708Z,5.70
2024-04-09T19:23:12.034Z,1.90
2024-04-09T19:25:39.401Z,1.87
2024-04-09T19:28:06.979Z,3.73
2024-04-09T19:30:34.272Z,1.83
2024-04-09T19:33:01.700Z,4.83
2024-04-09T19:35:29.255Z,4.70
2024-04-09T19:37:56.800Z,1.67
2024-04-09T19:40:24.236Z,1.60
2024-04-09T19:42:52.236Z,1.60
2024-04-09T19:45:20.459Z,1.23
2024-04-09T19:47:47.933Z,1.80
2024-04-09T19:50:16.971Z,1.73
2024-04-09T19:52:44.360Z,2.23
2024-04-09T19:55:11.800Z,2.70
2024-04-09T19:57:40.610Z,3.20
2024-04-09T20:00:11.278Z,4.20
2024-04-09T20:02:40.787Z,3.20
2024-04-09T20:05:11.616Z,1.53
2024-04-09T20:07:38.966Z,1.27
2024-04-09T20:10:08.228Z,1.27
2024-04-09T20:12:38.655Z,0.90
2024-04-09T20:15:06.447Z,3.97
2024-04-09T20:17:34.088Z,2.23
2024-04-09T20:20:01.575Z,1.33
2024-04-09T20:22:28.963Z,1.27
2024-04-09T20:24:56.619Z,1.00
2024-04-09T20:27:23.930Z,2.70
2024-04-09T20:29:51.260Z,2.93
2024-04-09T20:32:19.155Z,1.50
2024-04-09T20:34:46.652Z,0.80
2024-04-09T20:37:15.048Z,1.27
2024-04-09T20:39:42.375Z,1.77
2024-04-09T20:42:10.201Z,2.53
2024-04-09T20:44:38.899Z,0.60
2024-04-09T20:47:06.410Z,1.40
2024-04-09T20:49:34.435Z,1.00
2024-04-09T20:52:02.113Z,2.00
2024-04-09T20:54:29.442Z,1.53
2024-04-09T20:56:56.916Z,0.80
2024-04-09T20:59:24.318Z,1.67
2024-04-09T21:01:51.716Z,1.17
2024-04-09T21:04:19.104Z,0.57
2024-04-09T21:06:46.689Z,0.60
2024-04-09T21:09:14.833Z,3.33
2024-04-09T21:11:42.478Z,1.00
2024-04-09T21:14:09.995Z,4.13
2024-04-09T21:16:37.517Z,3.80
2024-04-09T21:19:04.838Z,0.67
2024-04-09T21:21:32.251Z,2.80
2024-04-09T21:23:59.590Z,0.70
2024-04-09T21:26:29.952Z,0.60
2024-04-09T21:28:57.473Z,0.60
2024-04-09T21:31:24.934Z,2.30
2024-04-09T21:33:53.018Z,1.57
2024-04-09T21:36:20.560Z,2.33
2024-04-09T21:38:47.890Z,1.50
2024-04-09T21:41:15.271Z,1.07
2024-04-09T21:43:42.594Z,0.83
2024-04-09T21:46:09.892Z,0.47
2024-04-09T21:48:37.416Z,1.53
2024-04-09T21:51:05.181Z,1.07
2024-04-09T21:53:33.040Z,1.43
2024-04-09T21:56:00.494Z,2.27
2024-04-09T21:58:29.348Z,2.23
2024-04-09T22:00:58.111Z,1.10
2024-04-09T22:03:25.775Z,1.17
2024-04-09T22:05:53.563Z,2.83
2024-04-09T22:08:20.962Z,1.60
2024-04-09T22:10:48.393Z,3.40
2024-04-09T22:13:15.832Z,4.40
2024-04-09T22:15:43.150Z,1.00
2024-04-09T22:18:11.459Z,1.67
2024-04-09T22:20:40.102Z,1.87
2024-04-09T22:23:13.638Z,1.63
2024-04-09T22:25:42.791Z,1.00
2024-04-09T22:28:10.360Z,1.97
2024-04-09T22:30:40.864Z,1.70
2024-04-09T22:33:08.936Z,1.53
2024-04-09T22:35:36.751Z,1.10
2024-04-09T22:38:04.352Z,1.40
2024-04-09T22:40:31.793Z,1.90
2024-04-09T22:42:59.193Z,1.23
2024-04-09T22:45:26.683Z,1.50
2024-04-09T22:47:54.203Z,1.87
2024-04-09T22:50:21.843Z,5.20
2024-04-09T22:52:49.293Z,2.87
2024-04-09T22:55:16.951Z,1.67
2024-04-09T22:57:44.270Z,1.00
2024-04-09T23:00:13.394Z,2.20
2024-04-09T23:02:41.258Z,2.77
2024-04-09T23:05:11.427Z,3.33
2024-04-09T23:07:38.983Z,1.83
2024-04-09T23:10:06.700Z,4.40
2024-04-09T23:12:34.690Z,4.37
2024-04-09T23:15:02.033Z,2.90
2024-04-09T23:17:29.636Z,2.83
2024-04-09T23:19:57.468Z,2.17
2024-04-09T23:22:24.809Z,1.53
2024-04-09T23:24:52.102Z,3.93
2024-04-09T23:27:19.499Z,3.10
2024-04-09T23:29:46.806Z,4.60
2024-04-09T23:32:14.120Z,4.33
2024-04-09T23:34:41.607Z,4.37
2024-04-09T23:37:08.888Z,3.77
2024-04-09T23:39:36.201Z,1.67
2024-04-09T23:42:05.478Z,3.30
2024-04-09T23:44:34.365Z,3.10
2024-04-09T23:47:03.123Z,4.17
2024-04-09T23:49:31.239Z,2.17
2024-04-09T23:51:58.612Z,2.53
2024-04-09T23:54:26.126Z,3.40
2024-04-09T23:56:53.590Z,1.77
2024-04-09T23:59:21.107Z,5.93
